sensor_id;sensor_type;location;lat;lon;timestamp;P1;durP1;ratioP1;P2;durP2;ratioP2
70148;SDS011;57514;52.164;5.282;2022-10-10T00:01:16;13.18;;;6.05;;
70148;SDS011;57514;52.164;5.282;2022-10-10T00:03:43;11.80;;;5.10;;
70148;SDS011;57514;52.164;5.282;2022-10-10T00:06:11;10.98;;;5.95;;
70148;SDS011;57514;52.164;5.282;2022-10-10T00:08:38;10.27;;;5.30;;
70148;SDS011;57514;52.164;5.282;2022-10-10T00:11:06;10.43;;;5.32;;
70148;SDS011;57514;52.164;5.282;2022-10-10T00:13:34;13.77;;;5.97;;
70148;SDS011;57514;52.164;5.282;2022-10-10T00:16:01;11.13;;;5.57;;
70148;SDS011;57514;52.164;5.282;2022-10-10T00:18:28;9.95;;;5.13;;
70148;SDS011;57514;52.164;5.282;2022-10-10T00:20:56;10.60;;;5.63;;
70148;SDS011;57514;52.164;5.282;2022-10-10T00:23:23;11.48;;;4.85;;
70148;SDS011;57514;52.164;5.282;2022-10-10T00:25:50;11.75;;;5.22;;
70148;SDS011;57514;52.164;5.282;2022-10-10T00:28:17;10.98;;;5.30;;
70148;SDS011;57514;52.164;5.282;2022-10-10T00:30:45;12.88;;;5.80;;
70148;SDS011;57514;52.164;5.282;2022-10-10T00:33:12;13.48;;;5.82;;
70148;SDS011;57514;52.164;5.282;2022-10-10T00:35:40;15.05;;;6.20;;
70148;SDS011;57514;52.164;5.282;2022-10-10T00:38:07;12.07;;;4.57;;
70148;SDS011;57514;52.164;5.282;2022-10-10T00:40:34;12.73;;;6.18;;
70148;SDS011;57514;52.164;5.282;2022-10-10T00:43:01;13.70;;;6.20;;
70148;SDS011;57514;52.164;5.282;2022-10-10T00:45:37;11.75;;;5.75;;
70148;SDS011;57514;52.164;5.282;2022-10-10T00:48:05;11.15;;;5.78;;
70148;SDS011;57514;52.164;5.282;2022-10-10T00:50:35;12.38;;;5.90;;
70148;SDS011;57514;52.164;5.282;2022-10-10T00:53:04;15.98;;;6.25;;
70148;SDS011;57514;52.164;5.282;2022-10-10T00:55:32;10.82;;;6.07;;
70148;SDS011;57514;52.164;5.282;2022-10-10T00:58:00;14.25;;;5.57;;
70148;SDS011;57514;52.164;5.282;2022-10-10T01:00:29;13.15;;;6.22;;
70148;SDS011;57514;52.164;5.282;2022-10-10T01:02:56;11.20;;;4.78;;
70148;SDS011;57514;52.164;5.282;2022-10-10T01:05:23;13.18;;;5.68;;
70148;SDS011;57514;52.164;5.282;2022-10-10T01:07:50;13.65;;;6.03;;
70148;SDS011;57514;52.164;5.282;2022-10-10T01:10:18;12.40;;;6.18;;
70148;SDS011;57514;52.164;5.282;2022-10-10T01:15:28;13.32;;;5.28;;
70148;SDS011;57514;52.164;5.282;2022-10-10T01:18:04;10.75;;;5.70;;
70148;SDS011;57514;52.164;5.282;2022-10-10T01:31:04;13.13;;;6.07;;
70148;SDS011;57514;52.164;5.282;2022-10-10T01:33:35;13.40;;;6.32;;
70148;SDS011;57514;52.164;5.282;2022-10-10T01:36:13;12.77;;;5.45;;
70148;SDS011;57514;52.164;5.282;2022-10-10T01:38:45;11.57;;;5.55;;
70148;SDS011;57514;52.164;5.282;2022-10-10T01:41:23;12.57;;;5.75;;
70148;SDS011;57514;52.164;5.282;2022-10-10T01:43:55;11.13;;;4.75;;
70148;SDS011;57514;52.164;5.282;2022-10-10T01:46:23;11.77;;;5.40;;
70148;SDS011;57514;52.164;5.282;2022-10-10T01:48:51;9.68;;;5.13;;
70148;SDS011;57514;52.164;5.282;2022-10-10T01:53:56;17.40;;;6.25;;
70148;SDS011;57514;52.164;5.282;2022-10-10T01:56:50;18.80;;;4.75;;
70148;SDS011;57514;52.164;5.282;2022-10-10T01:59:18;10.15;;;5.45;;
70148;SDS011;57514;52.164;5.282;2022-10-10T02:01:51;11.48;;;5.63;;
70148;SDS011;57514;52.164;5.282;2022-10-10T02:04:27;15.27;;;5.97;;
70148;SDS011;57514;52.164;5.282;2022-10-10T02:07:31;11.07;;;5.13;;
70148;SDS011;57514;52.164;5.282;2022-10-10T02:09:50;16.85;;;5.88;;
70148;SDS011;57514;52.164;5.282;2022-10-10T02:12:18;11.35;;;5.57;;
70148;SDS011;57514;52.164;5.282;2022-10-10T02:14:46;10.95;;;4.72;;
70148;SDS011;57514;52.164;5.282;2022-10-10T02:17:16;10.95;;;5.25;;
70148;SDS011;57514;52.164;5.282;2022-10-10T02:19:45;12.05;;;4.60;;
70148;SDS011;57514;52.164;5.282;2022-10-10T02:22:13;12.75;;;5.22;;
70148;SDS011;57514;52.164;5.282;2022-10-10T02:24:40;11.48;;;6.80;;
70148;SDS011;57514;52.164;5.282;2022-10-10T02:27:10;10.77;;;5.78;;
70148;SDS011;57514;52.164;5.282;2022-10-10T02:29:39;12.75;;;6.63;;
70148;SDS011;57514;52.164;5.282;2022-10-10T02:32:08;8.73;;;4.53;;
70148;SDS011;57514;52.164;5.282;2022-10-10T02:34:37;11.07;;;4.55;;
70148;SDS011;57514;52.164;5.282;2022-10-10T02:37:06;12.32;;;5.63;;
70148;SDS011;57514;52.164;5.282;2022-10-10T02:39:36;13.65;;;5.03;;
70148;SDS011;57514;52.164;5.282;2022-10-10T02:42:04;9.20;;;5.20;;
70148;SDS011;57514;52.164;5.282;2022-10-10T02:44:33;12.45;;;6.07;;
70148;SDS011;57514;52.164;5.282;2022-10-10T02:47:00;11.77;;;5.43;;
70148;SDS011;57514;52.164;5.282;2022-10-10T02:49:28;11.25;;;5.10;;
70148;SDS011;57514;52.164;5.282;2022-10-10T02:51:56;11.55;;;6.15;;
70148;SDS011;57514;52.164;5.282;2022-10-10T02:54:23;10.80;;;5.88;;
70148;SDS011;57514;52.164;5.282;2022-10-10T02:56:51;10.35;;;5.57;;
70148;SDS011;57514;52.164;5.282;2022-10-10T02:59:18;10.27;;;4.32;;
70148;SDS011;57514;52.164;5.282;2022-10-10T03:01:45;9.85;;;5.20;;
70148;SDS011;57514;52.164;5.282;2022-10-10T03:04:12;12.20;;;5.28;;
70148;SDS011;57514;52.164;5.282;2022-10-10T03:06:39;9.52;;;5.18;;
70148;SDS011;57514;52.164;5.282;2022-10-10T03:09:07;12.45;;;6.10;;
70148;SDS011;57514;52.164;5.282;2022-10-10T03:11:34;10.73;;;4.55;;
70148;SDS011;57514;52.164;5.282;2022-10-10T03:14:01;11.32;;;6.13;;
70148;SDS011;57514;52.164;5.282;2022-10-10T03:16:28;11.43;;;5.82;;
70148;SDS011;57514;52.164;5.282;2022-10-10T03:18:55;10.65;;;5.63;;
70148;SDS011;57514;52.164;5.282;2022-10-10T03:21:22;12.60;;;5.13;;
70148;SDS011;57514;52.164;5.282;2022-10-10T03:23:49;14.35;;;5.75;;
70148;SDS011;57514;52.164;5.282;2022-10-10T03:26:16;10.23;;;5.38;;
70148;SDS011;57514;52.164;5.282;2022-10-10T03:28:43;12.98;;;5.97;;
70148;SDS011;57514;52.164;5.282;2022-10-10T03:31:11;13.77;;;5.95;;
70148;SDS011;57514;52.164;5.282;2022-10-10T03:33:38;14.07;;;6.00;;
70148;SDS011;57514;52.164;5.282;2022-10-10T03:36:05;12.32;;;5.78;;
70148;SDS011;57514;52.164;5.282;2022-10-10T03:38:32;9.60;;;4.68;;
70148;SDS011;57514;52.164;5.282;2022-10-10T03:40:59;12.30;;;6.28;;
70148;SDS011;57514;52.164;5.282;2022-10-10T03:43:26;11.23;;;5.38;;
70148;SDS011;57514;52.164;5.282;2022-10-10T03:45:53;12.27;;;5.93;;
70148;SDS011;57514;52.164;5.282;2022-10-10T03:48:20;11.32;;;5.68;;
70148;SDS011;57514;52.164;5.282;2022-10-10T03:50:47;11.93;;;5.68;;
70148;SDS011;57514;52.164;5.282;2022-10-10T03:53:14;12.68;;;5.95;;
70148;SDS011;57514;52.164;5.282;2022-10-10T03:55:42;12.52;;;5.70;;
70148;SDS011;57514;52.164;5.282;2022-10-10T03:58:09;13.68;;;5.55;;
70148;SDS011;57514;52.164;5.282;2022-10-10T04:00:37;12.80;;;6.13;;
70148;SDS011;57514;52.164;5.282;2022-10-10T04:03:04;13.68;;;6.93;;
70148;SDS011;57514;52.164;5.282;2022-10-10T04:05:32;14.05;;;6.50;;
70148;SDS011;57514;52.164;5.282;2022-10-10T04:07:59;15.18;;;6.40;;
70148;SDS011;57514;52.164;5.282;2022-10-10T04:10:27;9.65;;;5.05;;
70148;SDS011;57514;52.164;5.282;2022-10-10T04:12:54;14.43;;;7.07;;
70148;SDS011;57514;52.164;5.282;2022-10-10T04:15:21;13.63;;;5.82;;
70148;SDS011;57514;52.164;5.282;2022-10-10T04:17:48;12.32;;;6.03;;
70148;SDS011;57514;52.164;5.282;2022-10-10T04:20:15;14.38;;;4.70;;
70148;SDS011;57514;52.164;5.282;2022-10-10T04:22:43;14.18;;;7.32;;
70148;SDS011;57514;52.164;5.282;2022-10-10T04:25:10;18.08;;;6.13;;
70148;SDS011;57514;52.164;5.282;2022-10-10T04:27:37;13.05;;;6.75;;
70148;SDS011;57514;52.164;5.282;2022-10-10T04:30:05;16.92;;;6.03;;
70148;SDS011;57514;52.164;5.282;2022-10-10T04:32:32;11.48;;;5.70;;
70148;SDS011;57514;52.164;5.282;2022-10-10T04:34:59;13.15;;;6.97;;
70148;SDS011;57514;52.164;5.282;2022-10-10T04:37:27;16.50;;;7.45;;
70148;SDS011;57514;52.164;5.282;2022-10-10T04:39:54;11.25;;;6.10;;
70148;SDS011;57514;52.164;5.282;2022-10-10T04:42:21;12.98;;;7.28;;
70148;SDS011;57514;52.164;5.282;2022-10-10T04:44:48;13.32;;;5.22;;
70148;SDS011;57514;52.164;5.282;2022-10-10T04:47:15;11.23;;;5.90;;
70148;SDS011;57514;52.164;5.282;2022-10-10T04:49:42;10.88;;;6.97;;
70148;SDS011;57514;52.164;5.282;2022-10-10T04:52:10;11.90;;;6.10;;
70148;SDS011;57514;52.164;5.282;2022-10-10T04:54:37;12.55;;;5.18;;
70148;SDS011;57514;52.164;5.282;2022-10-10T04:57:04;9.43;;;4.50;;
70148;SDS011;57514;52.164;5.282;2022-10-10T04:59:31;16.63;;;7.85;;
70148;SDS011;57514;52.164;5.282;2022-10-10T05:01:58;11.38;;;5.90;;
70148;SDS011;57514;52.164;5.282;2022-10-10T05:04:27;16.17;;;6.50;;
70148;SDS011;57514;52.164;5.282;2022-10-10T05:06:54;11.40;;;5.50;;
70148;SDS011;57514;52.164;5.282;2022-10-10T05:09:21;13.07;;;6.78;;
70148;SDS011;57514;52.164;5.282;2022-10-10T05:11:48;10.88;;;6.05;;
70148;SDS011;57514;52.164;5.282;2022-10-10T05:14:15;12.70;;;5.97;;
70148;SDS011;57514;52.164;5.282;2022-10-10T05:16:42;12.93;;;6.05;;
70148;SDS011;57514;52.164;5.282;2022-10-10T05:19:10;13.13;;;6.10;;
70148;SDS011;57514;52.164;5.282;2022-10-10T05:21:37;13.35;;;6.80;;
70148;SDS011;57514;52.164;5.282;2022-10-10T05:24:04;15.68;;;5.97;;
70148;SDS011;57514;52.164;5.282;2022-10-10T05:26:31;11.63;;;5.57;;
70148;SDS011;57514;52.164;5.282;2022-10-10T05:28:58;13.00;;;6.28;;
70148;SDS011;57514;52.164;5.282;2022-10-10T05:31:27;13.15;;;6.90;;
70148;SDS011;57514;52.164;5.282;2022-10-10T05:33:54;14.02;;;6.95;;
70148;SDS011;57514;52.164;5.282;2022-10-10T05:36:21;12.75;;;7.07;;
70148;SDS011;57514;52.164;5.282;2022-10-10T05:38:48;10.27;;;4.25;;
70148;SDS011;57514;52.164;5.282;2022-10-10T05:41:15;14.80;;;7.47;;
70148;SDS011;57514;52.164;5.282;2022-10-10T05:43:42;15.15;;;7.65;;
70148;SDS011;57514;52.164;5.282;2022-10-10T05:46:09;11.70;;;5.53;;
70148;SDS011;57514;52.164;5.282;2022-10-10T05:48:36;9.02;;;4.75;;
70148;SDS011;57514;52.164;5.282;2022-10-10T05:51:03;10.75;;;5.03;;
70148;SDS011;57514;52.164;5.282;2022-10-10T05:53:30;11.55;;;5.13;;
70148;SDS011;57514;52.164;5.282;2022-10-10T05:55:59;14.60;;;7.22;;
70148;SDS011;57514;52.164;5.282;2022-10-10T05:58:26;10.30;;;4.95;;
70148;SDS011;57514;52.164;5.282;2022-10-10T06:00:54;13.48;;;7.35;;
70148;SDS011;57514;52.164;5.282;2022-10-10T06:03:21;15.88;;;7.32;;
70148;SDS011;57514;52.164;5.282;2022-10-10T06:05:51;12.60;;;7.05;;
70148;SDS011;57514;52.164;5.282;2022-10-10T06:08:18;13.20;;;6.90;;
70148;SDS011;57514;52.164;5.282;2022-10-10T06:10:45;12.52;;;5.50;;
70148;SDS011;57514;52.164;5.282;2022-10-10T06:13:13;13.95;;;7.10;;
70148;SDS011;57514;52.164;5.282;2022-10-10T06:15:48;16.17;;;7.43;;
70148;SDS011;57514;52.164;5.282;2022-10-10T06:18:16;11.02;;;5.25;;
70148;SDS011;57514;52.164;5.282;2022-10-10T06:20:43;14.93;;;7.63;;
70148;SDS011;57514;52.164;5.282;2022-10-10T06:23:10;14.20;;;6.13;;
70148;SDS011;57514;52.164;5.282;2022-10-10T06:25:37;16.73;;;6.53;;
70148;SDS011;57514;52.164;5.282;2022-10-10T06:28:06;14.60;;;6.85;;
70148;SDS011;57514;52.164;5.282;2022-10-10T06:30:37;14.40;;;7.95;;
70148;SDS011;57514;52.164;5.282;2022-10-10T06:33:05;10.60;;;5.78;;
70148;SDS011;57514;52.164;5.282;2022-10-10T06:35:33;11.25;;;6.20;;
70148;SDS011;57514;52.164;5.282;2022-10-10T06:38:00;11.75;;;6.10;;
70148;SDS011;57514;52.164;5.282;2022-10-10T06:40:27;11.82;;;5.82;;
70148;SDS011;57514;52.164;5.282;2022-10-10T06:42:54;10.40;;;5.53;;
70148;SDS011;57514;52.164;5.282;2022-10-10T06:45:21;16.05;;;6.90;;
70148;SDS011;57514;52.164;5.282;2022-10-10T06:47:50;10.07;;;5.30;;
70148;SDS011;57514;52.164;5.282;2022-10-10T06:50:17;13.20;;;6.32;;
70148;SDS011;57514;52.164;5.282;2022-10-10T06:52:44;11.32;;;5.70;;
70148;SDS011;57514;52.164;5.282;2022-10-10T06:55:11;9.75;;;4.68;;
70148;SDS011;57514;52.164;5.282;2022-10-10T06:57:39;12.60;;;6.03;;
70148;SDS011;57514;52.164;5.282;2022-10-10T07:00:06;12.00;;;5.55;;
70148;SDS011;57514;52.164;5.282;2022-10-10T07:02:33;10.55;;;5.38;;
70148;SDS011;57514;52.164;5.282;2022-10-10T07:05:09;11.35;;;5.57;;
70148;SDS011;57514;52.164;5.282;2022-10-10T07:07:37;9.25;;;4.75;;
70148;SDS011;57514;52.164;5.282;2022-10-10T07:10:05;9.98;;;5.60;;
70148;SDS011;57514;52.164;5.282;2022-10-10T07:12:33;8.85;;;4.38;;
70148;SDS011;57514;52.164;5.282;2022-10-10T07:15:09;8.50;;;4.32;;
70148;SDS011;57514;52.164;5.282;2022-10-10T07:17:36;10.55;;;4.95;;
70148;SDS011;57514;52.164;5.282;2022-10-10T07:20:04;10.75;;;4.15;;
70148;SDS011;57514;52.164;5.282;2022-10-10T07:22:31;11.48;;;4.63;;
70148;SDS011;57514;52.164;5.282;2022-10-10T07:24:58;9.55;;;4.05;;
70148;SDS011;57514;52.164;5.282;2022-10-10T07:27:25;8.75;;;4.30;;
70148;SDS011;57514;52.164;5.282;2022-10-10T07:29:52;15.50;;;6.25;;
70148;SDS011;57514;52.164;5.282;2022-10-10T07:32:19;14.48;;;6.50;;
70148;SDS011;57514;52.164;5.282;2022-10-10T07:34:47;13.90;;;6.85;;
70148;SDS011;57514;52.164;5.282;2022-10-10T07:37:15;14.43;;;6.63;;
70148;SDS011;57514;52.164;5.282;2022-10-10T07:39:43;12.88;;;6.00;;
70148;SDS011;57514;52.164;5.282;2022-10-10T07:42:10;12.27;;;6.00;;
70148;SDS011;57514;52.164;5.282;2022-10-10T07:44:37;12.70;;;6.70;;
70148;SDS011;57514;52.164;5.282;2022-10-10T07:47:05;11.60;;;5.72;;
70148;SDS011;57514;52.164;5.282;2022-10-10T07:49:33;14.35;;;6.47;;
70148;SDS011;57514;52.164;5.282;2022-10-10T07:51:59;13.45;;;6.93;;
70148;SDS011;57514;52.164;5.282;2022-10-10T07:54:27;12.48;;;5.05;;
70148;SDS011;57514;52.164;5.282;2022-10-10T07:56:55;16.20;;;5.82;;
70148;SDS011;57514;52.164;5.282;2022-10-10T07:59:22;12.68;;;6.18;;
70148;SDS011;57514;52.164;5.282;2022-10-10T08:01:49;11.93;;;6.45;;
70148;SDS011;57514;52.164;5.282;2022-10-10T08:04:17;15.73;;;6.68;;
70148;SDS011;57514;52.164;5.282;2022-10-10T08:06:44;14.98;;;6.88;;
70148;SDS011;57514;52.164;5.282;2022-10-10T08:09:11;12.25;;;5.60;;
70148;SDS011;57514;52.164;5.282;2022-10-10T08:11:38;13.00;;;5.85;;
70148;SDS011;57514;52.164;5.282;2022-10-10T08:14:05;9.43;;;4.28;;
70148;SDS011;57514;52.164;5.282;2022-10-10T08:16:32;11.50;;;5.93;;
70148;SDS011;57514;52.164;5.282;2022-10-10T08:18:59;11.82;;;6.40;;
70148;SDS011;57514;52.164;5.282;2022-10-10T08:21:27;11.63;;;6.00;;
70148;SDS011;57514;52.164;5.282;2022-10-10T08:23:54;13.80;;;5.93;;
70148;SDS011;57514;52.164;5.282;2022-10-10T08:26:21;11.18;;;5.88;;
70148;SDS011;57514;52.164;5.282;2022-10-10T08:28:48;11.27;;;5.57;;
70148;SDS011;57514;52.164;5.282;2022-10-10T08:31:16;11.68;;;5.47;;
70148;SDS011;57514;52.164;5.282;2022-10-10T08:36:14;11.98;;;6.00;;
70148;SDS011;57514;52.164;5.282;2022-10-10T08:38:43;12.13;;;5.72;;
70148;SDS011;57514;52.164;5.282;2022-10-10T08:41:14;11.05;;;5.10;;
70148;SDS011;57514;52.164;5.282;2022-10-10T08:43:57;9.93;;;4.88;;
70148;SDS011;57514;52.164;5.282;2022-10-10T08:46:47;10.98;;;5.05;;
70148;SDS011;57514;52.164;5.282;2022-10-10T08:49:36;11.60;;;5.45;;
70148;SDS011;57514;52.164;5.282;2022-10-10T08:55:22;13.82;;;5.85;;
70148;SDS011;57514;52.164;5.282;2022-10-10T09:00:28;11.70;;;5.70;;
70148;SDS011;57514;52.164;5.282;2022-10-10T09:02:58;10.85;;;5.80;;
70148;SDS011;57514;52.164;5.282;2022-10-10T09:08:07;11.48;;;5.13;;
70148;SDS011;57514;52.164;5.282;2022-10-10T09:10:56;10.45;;;6.07;;
70148;SDS011;57514;52.164;5.282;2022-10-10T09:16:46;12.30;;;5.85;;
70148;SDS011;57514;52.164;5.282;2022-10-10T09:21:58;15.15;;;6.60;;
70148;SDS011;57514;52.164;5.282;2022-10-10T09:24:27;14.63;;;5.93;;
70148;SDS011;57514;52.164;5.282;2022-10-10T09:27:04;11.55;;;6.18;;
70148;SDS011;57514;52.164;5.282;2022-10-10T09:29:34;10.95;;;5.47;;
70148;SDS011;57514;52.164;5.282;2022-10-10T09:34:38;14.48;;;6.05;;
70148;SDS011;57514;52.164;5.282;2022-10-10T09:42:40;16.13;;;6.35;;
70148;SDS011;57514;52.164;5.282;2022-10-10T09:45:43;15.77;;;6.28;;
70148;SDS011;57514;52.164;5.282;2022-10-10T09:48:02;14.55;;;5.60;;
70148;SDS011;57514;52.164;5.282;2022-10-10T09:50:30;18.88;;;6.85;;
70148;SDS011;57514;52.164;5.282;2022-10-10T09:52:57;16.75;;;6.35;;
70148;SDS011;57514;52.164;5.282;2022-10-10T09:55:26;11.52;;;4.72;;
70148;SDS011;57514;52.164;5.282;2022-10-10T09:57:55;12.40;;;5.93;;
70148;SDS011;57514;52.164;5.282;2022-10-10T10:00:27;12.45;;;5.45;;
70148;SDS011;57514;52.164;5.282;2022-10-10T10:03:14;15.40;;;6.88;;
70148;SDS011;57514;52.164;5.282;2022-10-10T10:05:52;11.80;;;6.07;;
70148;SDS011;57514;52.164;5.282;2022-10-10T10:08:25;15.18;;;6.60;;
70148;SDS011;57514;52.164;5.282;2022-10-10T10:10:52;10.75;;;5.35;;
70148;SDS011;57514;52.164;5.282;2022-10-10T10:13:31;19.67;;;7.43;;
70148;SDS011;57514;52.164;5.282;2022-10-10T10:16:00;14.07;;;6.72;;
70148;SDS011;57514;52.164;5.282;2022-10-10T10:18:27;13.18;;;6.50;;
70148;SDS011;57514;52.164;5.282;2022-10-10T10:23:32;13.90;;;6.15;;
70148;SDS011;57514;52.164;5.282;2022-10-10T10:26:14;11.32;;;5.57;;
70148;SDS011;57514;52.164;5.282;2022-10-10T10:28:42;11.32;;;5.25;;
70148;SDS011;57514;52.164;5.282;2022-10-10T10:31:21;13.25;;;5.75;;
70148;SDS011;57514;52.164;5.282;2022-10-10T10:34:17;10.18;;;4.88;;
70148;SDS011;57514;52.164;5.282;2022-10-10T10:48:47;12.70;;;5.95;;
70148;SDS011;57514;52.164;5.282;2022-10-10T10:54:13;11.15;;;4.75;;
70148;SDS011;57514;52.164;5.282;2022-10-10T10:56:55;12.90;;;5.15;;
70148;SDS011;57514;52.164;5.282;2022-10-10T10:59:35;11.77;;;5.43;;
70148;SDS011;57514;52.164;5.282;2022-10-10T11:02:40;10.35;;;4.22;;
70148;SDS011;57514;52.164;5.282;2022-10-10T11:05:36;10.75;;;5.10;;
70148;SDS011;57514;52.164;5.282;2022-10-10T11:08:30;11.18;;;5.38;;
70148;SDS011;57514;52.164;5.282;2022-10-10T11:11:41;14.38;;;5.47;;
70148;SDS011;57514;52.164;5.282;2022-10-10T11:14:30;14.38;;;5.50;;
70148;SDS011;57514;52.164;5.282;2022-10-10T11:17:05;12.50;;;6.07;;
70148;SDS011;57514;52.164;5.282;2022-10-10T11:20:00;12.68;;;5.30;;
70148;SDS011;57514;52.164;5.282;2022-10-10T11:22:52;15.05;;;6.13;;
70148;SDS011;57514;52.164;5.282;2022-10-10T11:25:35;11.13;;;5.20;;
70148;SDS011;57514;52.164;5.282;2022-10-10T11:28:14;13.80;;;5.85;;
70148;SDS011;57514;52.164;5.282;2022-10-10T11:31:02;13.18;;;5.80;;
70148;SDS011;57514;52.164;5.282;2022-10-10T11:33:56;16.38;;;6.20;;
70148;SDS011;57514;52.164;5.282;2022-10-10T11:36:29;14.82;;;6.30;;
70148;SDS011;57514;52.164;5.282;2022-10-10T11:41:51;13.40;;;5.72;;
70148;SDS011;57514;52.164;5.282;2022-10-10T11:44:41;12.90;;;6.25;;
70148;SDS011;57514;52.164;5.282;2022-10-10T11:47:15;12.95;;;5.93;;
70148;SDS011;57514;52.164;5.282;2022-10-10T11:50:24;14.38;;;6.28;;
70148;SDS011;57514;52.164;5.282;2022-10-10T11:53:12;13.32;;;6.00;;
70148;SDS011;57514;52.164;5.282;2022-10-10T11:56:11;14.40;;;5.75;;
70148;SDS011;57514;52.164;5.282;2022-10-10T11:58:50;12.32;;;6.40;;
70148;SDS011;57514;52.164;5.282;2022-10-10T12:01:26;15.52;;;6.03;;
70148;SDS011;57514;52.164;5.282;2022-10-10T12:03:59;18.20;;;6.70;;
70148;SDS011;57514;52.164;5.282;2022-10-10T12:09:18;13.88;;;6.15;;
70148;SDS011;57514;52.164;5.282;2022-10-10T12:12:09;15.07;;;7.20;;
70148;SDS011;57514;52.164;5.282;2022-10-10T12:14:44;12.90;;;6.68;;
70148;SDS011;57514;52.164;5.282;2022-10-10T12:17:19;11.73;;;6.22;;
70148;SDS011;57514;52.164;5.282;2022-10-10T12:19:51;14.98;;;6.95;;
70148;SDS011;57514;52.164;5.282;2022-10-10T12:22:26;12.32;;;6.38;;
70148;SDS011;57514;52.164;5.282;2022-10-10T12:25:38;14.48;;;6.90;;
70148;SDS011;57514;52.164;5.282;2022-10-10T12:35:54;15.75;;;6.63;;
70148;SDS011;57514;52.164;5.282;2022-10-10T12:38:25;17.65;;;7.20;;
70148;SDS011;57514;52.164;5.282;2022-10-10T12:43:44;14.48;;;6.30;;
70148;SDS011;57514;52.164;5.282;2022-10-10T12:46:21;14.65;;;6.53;;
70148;SDS011;57514;52.164;5.282;2022-10-10T12:49:27;14.60;;;5.07;;
70148;SDS011;57514;52.164;5.282;2022-10-10T12:54:53;13.88;;;5.68;;
70148;SDS011;57514;52.164;5.282;2022-10-10T12:57:33;13.38;;;5.47;;
70148;SDS011;57514;52.164;5.282;2022-10-10T13:02:51;14.07;;;5.28;;
70148;SDS011;57514;52.164;5.282;2022-10-10T13:05:31;12.75;;;5.20;;
70148;SDS011;57514;52.164;5.282;2022-10-10T13:08:01;12.00;;;5.32;;
70148;SDS011;57514;52.164;5.282;2022-10-10T13:10:29;15.43;;;4.45;;
70148;SDS011;57514;52.164;5.282;2022-10-10T13:12:57;11.63;;;4.10;;
70148;SDS011;57514;52.164;5.282;2022-10-10T13:15:25;11.93;;;5.30;;
70148;SDS011;57514;52.164;5.282;2022-10-10T13:17:53;10.35;;;4.50;;
70148;SDS011;57514;52.164;5.282;2022-10-10T13:22:54;10.05;;;4.43;;
70148;SDS011;57514;52.164;5.282;2022-10-10T13:25:21;10.60;;;3.33;;
70148;SDS011;57514;52.164;5.282;2022-10-10T13:27:49;9.65;;;3.83;;
70148;SDS011;57514;52.164;5.282;2022-10-10T13:30:20;9.38;;;3.00;;
70148;SDS011;57514;52.164;5.282;2022-10-10T13:32:47;8.88;;;3.40;;
70148;SDS011;57514;52.164;5.282;2022-10-10T13:35:16;10.70;;;2.42;;
70148;SDS011;57514;52.164;5.282;2022-10-10T13:37:51;4.57;;;2.47;;
70148;SDS011;57514;52.164;5.282;2022-10-10T13:40:18;1.77;;;1.35;;
70148;SDS011;57514;52.164;5.282;2022-10-10T13:42:46;2.75;;;1.30;;
70148;SDS011;57514;52.164;5.282;2022-10-10T13:50:32;4.35;;;1.40;;
70148;SDS011;57514;52.164;5.282;2022-10-10T13:55:45;2.75;;;1.58;;
70148;SDS011;57514;52.164;5.282;2022-10-10T13:58:12;4.28;;;1.52;;
70148;SDS011;57514;52.164;5.282;2022-10-10T14:00:40;3.45;;;1.52;;
70148;SDS011;57514;52.164;5.282;2022-10-10T14:03:13;3.45;;;1.65;;
70148;SDS011;57514;52.164;5.282;2022-10-10T14:05:42;2.97;;;1.40;;
70148;SDS011;57514;52.164;5.282;2022-10-10T14:08:17;6.00;;;1.45;;
70148;SDS011;57514;52.164;5.282;2022-10-10T14:10:55;3.28;;;1.30;;
70148;SDS011;57514;52.164;5.282;2022-10-10T14:13:22;3.85;;;1.33;;
70148;SDS011;57514;52.164;5.282;2022-10-10T14:15:50;4.22;;;1.55;;
70148;SDS011;57514;52.164;5.282;2022-10-10T14:18:21;5.22;;;2.08;;
70148;SDS011;57514;52.164;5.282;2022-10-10T14:20:49;5.45;;;1.75;;
70148;SDS011;57514;52.164;5.282;2022-10-10T14:23:16;2.95;;;1.25;;
70148;SDS011;57514;52.164;5.282;2022-10-10T14:25:45;6.72;;;1.58;;
70148;SDS011;57514;52.164;5.282;2022-10-10T14:28:14;5.60;;;1.73;;
70148;SDS011;57514;52.164;5.282;2022-10-10T14:30:46;9.25;;;1.40;;
70148;SDS011;57514;52.164;5.282;2022-10-10T14:33:15;13.70;;;2.25;;
70148;SDS011;57514;52.164;5.282;2022-10-10T14:35:42;8.90;;;2.00;;
70148;SDS011;57514;52.164;5.282;2022-10-10T14:38:10;12.30;;;2.58;;
70148;SDS011;57514;52.164;5.282;2022-10-10T14:40:37;7.32;;;1.75;;
70148;SDS011;57514;52.164;5.282;2022-10-10T14:43:04;12.27;;;1.98;;
70148;SDS011;57514;52.164;5.282;2022-10-10T14:45:32;9.65;;;1.95;;
70148;SDS011;57514;52.164;5.282;2022-10-10T14:47:59;6.50;;;1.92;;
70148;SDS011;57514;52.164;5.282;2022-10-10T14:50:36;9.55;;;2.03;;
70148;SDS011;57514;52.164;5.282;2022-10-10T14:53:06;9.73;;;2.30;;
70148;SDS011;57514;52.164;5.282;2022-10-10T14:55:32;7.90;;;1.83;;
70148;SDS011;57514;52.164;5.282;2022-10-10T14:57:59;8.73;;;2.22;;
70148;SDS011;57514;52.164;5.282;2022-10-10T15:00:27;9.30;;;2.15;;
70148;SDS011;57514;52.164;5.282;2022-10-10T15:02:54;10.13;;;2.30;;
70148;SDS011;57514;52.164;5.282;2022-10-10T15:05:21;9.93;;;2.00;;
70148;SDS011;57514;52.164;5.282;2022-10-10T15:07:49;12.25;;;2.05;;
70148;SDS011;57514;52.164;5.282;2022-10-10T15:10:18;12.60;;;2.20;;
70148;SDS011;57514;52.164;5.282;2022-10-10T15:12:59;10.55;;;2.50;;
70148;SDS011;57514;52.164;5.282;2022-10-10T15:15:26;9.00;;;2.28;;
70148;SDS011;57514;52.164;5.282;2022-10-10T15:17:53;12.00;;;2.60;;
70148;SDS011;57514;52.164;5.282;2022-10-10T15:20:20;13.75;;;2.67;;
70148;SDS011;57514;52.164;5.282;2022-10-10T15:22:50;16.35;;;2.30;;
70148;SDS011;57514;52.164;5.282;2022-10-10T15:25:17;13.18;;;2.00;;
70148;SDS011;57514;52.164;5.282;2022-10-10T15:27:44;12.68;;;2.53;;
70148;SDS011;57514;52.164;5.282;2022-10-10T15:30:11;13.95;;;2.75;;
70148;SDS011;57514;52.164;5.282;2022-10-10T15:32:39;16.08;;;2.47;;
70148;SDS011;57514;52.164;5.282;2022-10-10T15:35:08;10.52;;;1.95;;
70148;SDS011;57514;52.164;5.282;2022-10-10T15:37:38;12.50;;;2.67;;
70148;SDS011;57514;52.164;5.282;2022-10-10T15:40:06;9.38;;;2.38;;
70148;SDS011;57514;52.164;5.282;2022-10-10T15:42:33;11.10;;;2.50;;
70148;SDS011;57514;52.164;5.282;2022-10-10T15:45:00;12.18;;;2.65;;
70148;SDS011;57514;52.164;5.282;2022-10-10T15:47:27;12.68;;;2.80;;
70148;SDS011;57514;52.164;5.282;2022-10-10T15:49:54;14.30;;;2.80;;
70148;SDS011;57514;52.164;5.282;2022-10-10T15:52:52;14.52;;;2.40;;
70148;SDS011;57514;52.164;5.282;2022-10-10T15:55:19;15.85;;;3.15;;
70148;SDS011;57514;52.164;5.282;2022-10-10T15:57:46;12.20;;;2.75;;
70148;SDS011;57514;52.164;5.282;2022-10-10T16:00:13;12.20;;;2.50;;
70148;SDS011;57514;52.164;5.282;2022-10-10T16:02:41;10.02;;;2.30;;
70148;SDS011;57514;52.164;5.282;2022-10-10T16:05:08;13.90;;;2.70;;
70148;SDS011;57514;52.164;5.282;2022-10-10T16:07:35;12.95;;;2.55;;
70148;SDS011;57514;52.164;5.282;2022-10-10T16:10:13;7.93;;;2.00;;
70148;SDS011;57514;52.164;5.282;2022-10-10T16:12:40;14.40;;;2.47;;
70148;SDS011;57514;52.164;5.282;2022-10-10T16:15:07;12.77;;;2.40;;
70148;SDS011;57514;52.164;5.282;2022-10-10T16:17:34;10.52;;;2.35;;
70148;SDS011;57514;52.164;5.282;2022-10-10T16:20:02;14.05;;;2.53;;
70148;SDS011;57514;52.164;5.282;2022-10-10T16:22:29;9.73;;;1.33;;
70148;SDS011;57514;52.164;5.282;2022-10-10T16:24:56;7.00;;;1.80;;
70148;SDS011;57514;52.164;5.282;2022-10-10T16:27:44;7.65;;;2.13;;